Martinsville, Virginia
Current Conditions -  °F | °C
As of 4:15 PM on Thursday 23 Oct 2014 (Local Time) from KMTV Reporting Station
Clear Clear  
Wind Chill: 66°   Ceiling: Unl
Heat Index: 66°   Visibility: 10mi
Dew Point: 42°   Wind: 13mph
Humidity: 41%   Direction: 330°NNW
Pressure: 30.02"   Gusts: NA
Location:  36.69°N, 79.87°W
Report Text: KMTV 232015Z AUTO 33011KT 10SM CLR 19/05 A3002 RMK AO2 T01900054
Loading
Personal Weather Stations






























Interactive Weather Map
Tropical Storm Tracking
New forecast layout! Learn more

10-Day Weather Forecast

Advertisements
Track Severe Weather on mobile